• Join FlightAware (Why Join?)
  • Login
  • US Flag 
02:28AM EDT


 

Airport Tracker/Info


-or-


 

Live Flight TrackerFlight Track Log ✈ JUS196 ✈ 19-Apr-2013 ✈ KYIP - KGYY

Flight Track Log - Related Links

Times and Time Zones

All times are in EDT time to prevent confusion due to time zone crossing. See the JUS196 flight status page for this flight to view local times or setup timezone preferences in your user account.

Time Position Orientation Groundspeed Altitude Reporting Facility
EDT Latitude Longitude Course Direction KTS MPH feet Rate Location/Type
10:57AM 42.2406 -83.5478 268° West 130 150 1,800  Level Cleveland Center
10:58AM 42.2394 -83.5956 268° West 173 199 3,000 1,860 Climbing Cleveland Center
10:58AM 42.2367 -83.6150 259° West 193 222 3,900 2,400 Climbing Cleveland Center
10:59AM 42.2311 -83.6736 263° West 231 266 5,400 3,060 Climbing Cleveland Center
10:59AM 42.2306 -83.6875 267° West 231 266 6,700 3,480 Climbing Cleveland Center
11:00AM 42.2353 -83.7467 276° West 234 269 8,900 2,820 Climbing Cleveland Center
11:01AM 42.2408 -83.8481 274° West 246 283 11,600 2,820 Climbing Cleveland Center
11:02AM 42.2481 -83.9550 275° West 274 315 14,600 5,160 Climbing Cleveland Center
11:03AM 42.2553 -84.0675 275° West 298 343 22,000 3,300 Climbing Cleveland Center
11:04AM 42.2583 -84.1717 272° West 292 336 21,300  Descending Cleveland Center
11:05AM 42.2222 -84.2594 241° Southwest 262 302 22,000 180 Climbing Cleveland Center
11:07AM 42.1319 -84.4803 241° Southwest 305 351 22,000  Level Chicago Center
11:08AM 42.0947 -84.5808 244° Southwest 302 348 22,000  Level Chicago Center
11:09AM 42.0586 -84.6803 244° Southwest 297 342 22,000  Level Chicago Center
11:10AM 42.0131 -84.7967 242° Southwest 293 337 22,000  Level Chicago Center
11:11AM 41.9778 -84.8867 242° Southwest 289 333 22,000  Level Chicago Center
11:12AM 41.9408 -84.9803 242° Southwest 285 328 22,000  Level Chicago Center
11:13AM 41.9025 -85.0728 241° Southwest 286 329 22,000  Level Chicago Center
11:14AM 41.8647 -85.1656 241° Southwest 285 328 22,000 -300 Level Chicago Center
11:15AM 41.8203 -85.2764 242° Southwest 284 327 21,500 -840 Descending Chicago Center
11:16AM 41.7822 -85.3672 241° Southwest 284 327 20,300 -1,260 Descending Chicago Center
11:17AM 41.7497 -85.4514 243° Southwest 261 300 18,900 -1,500 Descending Chicago Center
11:18AM 41.7225 -85.5303 245° Southwest 240 276 17,200 -1,440 Descending Chicago Center
11:19AM 41.6928 -85.6014 241° Southwest 225 259 16,000 -600 Descending Chicago Center
11:20AM 41.6522 -85.6869 238° Southwest 231 266 16,000  Level Chicago Center
11:21AM 41.6144 -85.7697 239° Southwest 259 298 16,000  Level Chicago Center
11:22AM 41.5797 -85.8547 241° Southwest 262 302 16,000 -420 Level Chicago Center
11:24AM 41.5494 -85.9394 244° Southwest 255 293 15,200 -1,260 Descending Chicago Center
11:25AM 41.5175 -86.0236 243° Southwest 255 293 13,400 -1,740 Descending Chicago Center
11:26AM 41.5300 -86.1250 279° West 273 314 11,600 -1,680 Descending Chicago Center
11:27AM 41.5333 -86.2397 272° West 256 295 10,000 -840 Descending Chicago Center
11:28AM 41.5444 -86.3200 281° West 225 259 10,000 -360 Level Chicago Center
11:29AM 41.5494 -86.4028 275° West 223 257 9,300 -1,020 Descending Chicago Center
11:30AM 41.5544 -86.4867 275° West 227 261 8,000 -1,560 Descending Chicago Center
11:31AM 41.5567 -86.5664 272° West 217 250 6,100 -1,560 Descending Chicago Center
11:32AM 41.5600 -86.6522 273° West 229 264 4,800 -1,080 Descending Chicago Center
11:33AM 41.5675 -86.7425 276° West 227 261 4,000 -360 Descending Chicago Center
11:34AM 41.5781 -86.8228 280° West 223 257 4,100  Climbing Chicago Center
11:35AM 41.5828 -86.9072 274° West 228 262 4,000 -60 Descending Chicago Center
11:36AM 41.5892 -87.0039 275° West 220 253 4,000 -60 Level Chicago Center
11:37AM 41.5944 -87.0800 275° West 211 243 3,900 -540 Descending Chicago Center
11:38AM 41.5992 -87.1542 275° West 204 235 3,000 -720 Descending Chicago Center
11:39AM 41.6000 -87.2000 271° West 191 220 2,700 -300 Descending Chicago TRACON
11:40AM 41.6000 -87.2667 270° West 186 214 2,600 -420 Descending Chicago TRACON
11:41AM 41.5833 -87.3333 252° West 175 201 2,000 -720 Descending Chicago TRACON
11:41AM 41.6000 -87.3667 304° West 140 161 1,300 -540 Descending Chicago TRACON
11:42AM 41.6072 -87.3928 290° West 158 182 1,200 -180 Descending Chicago Center